Time;durP1;ratioP1;P1;durP2;ratioP2;P2;SDS_P1;SDS_P2;PMS_P1;PMS_P2;Temp;Humidity;BMP_temperature;BMP_pressure;BME280_temperature;BME280_humidity;BME280_pressure;Samples;Min_cycle;Max_cycle;Signal;HPM_P1;HPM_P2
2021/03/11 00:02:21;;;;;;;22.73;13.15;;;;;;;4.89;65.14;98474.53;4986794;28;20054;-74
2021/03/11 00:04:46;;;;;;;22.77;12.60;;;;;;;4.97;64.81;98468.53;4986475;28;20360;-74
2021/03/11 00:07:12;;;;;;;19.55;12.48;;;;;;;4.85;65.38;98464.25;4987760;28;20022;-74
2021/03/11 00:09:37;;;;;;;19.80;12.07;;;;;;;4.82;65.70;98469.38;4979809;28;20061;-73
2021/03/11 00:12:05;;;;;;;23.25;12.98;;;;;;;4.64;66.96;98470.22;4972576;28;20027;-74
2021/03/11 00:14:32;;;;;;;22.08;12.65;;;;;;;4.63;67.29;98468.53;4978547;28;20025;-74
2021/03/11 00:16:57;;;;;;;21.30;12.82;;;;;;;4.60;67.39;98463.41;4972751;28;20027;-74
2021/03/11 00:19:23;;;;;;;23.48;12.40;;;;;;;4.59;67.60;98456.53;4971544;28;20062;-74
2021/03/11 00:21:48;;;;;;;26.80;13.23;;;;;;;4.61;68.02;98459.97;4972641;28;20027;-74
2021/03/11 00:24:14;;;;;;;20.40;11.80;;;;;;;4.85;66.45;98459.13;4972727;28;20027;-73
2021/03/11 00:26:39;;;;;;;23.33;12.70;;;;;;;4.71;67.64;98461.69;4972984;28;20030;-74
2021/03/11 00:29:05;;;;;;;22.90;12.32;;;;;;;4.90;66.62;98462.56;4972781;28;20487;-74
2021/03/11 00:31:30;;;;;;;23.13;13.38;;;;;;;4.75;66.92;98460.84;4971179;28;20407;-74
2021/03/11 00:33:55;;;;;;;22.25;12.48;;;;;;;4.85;66.89;98465.13;4972627;28;20023;-74
2021/03/11 00:36:21;;;;;;;23.45;12.38;;;;;;;4.72;67.13;98455.69;4972747;28;20082;-74
2021/03/11 00:38:46;;;;;;;22.60;12.70;;;;;;;4.74;67.27;98464.28;4972660;28;20027;-74
2021/03/11 00:41:11;;;;;;;28.15;13.18;;;;;;;4.74;67.49;98466.84;4972404;28;20058;-74
2021/03/11 00:43:37;;;;;;;23.90;13.52;;;;;;;4.68;67.43;98461.69;4972725;28;20169;-74
2021/03/11 00:46:02;;;;;;;19.73;12.52;;;;;;;4.64;68.29;98465.09;4978174;28;20019;-74
2021/03/11 00:48:27;;;;;;;23.13;13.10;;;;;;;4.74;68.37;98455.69;4974152;28;20132;-74
2021/03/11 00:50:53;;;;;;;24.90;12.73;;;;;;;4.70;68.04;98460.00;4975767;28;20030;-74
2021/03/11 00:53:18;;;;;;;22.35;12.80;;;;;;;4.64;68.23;98462.53;4976049;28;20026;-74
2021/03/11 00:55:43;;;;;;;25.13;13.95;;;;;;;4.61;68.45;98452.28;4975938;28;20026;-74
2021/03/11 00:58:08;;;;;;;22.42;13.00;;;;;;;4.56;68.68;98447.16;4975851;28;20126;-74
2021/03/11 05:17:31;;;;;;;4.57;3.55;;;;;;;8.66;57.74;98086.88;4993901;23;20071;-72
2021/03/11 05:19:57;;;;;;;6.15;3.60;;;;;;;8.52;58.51;98092.34;4937106;29;20063;-72
2021/03/11 05:22:22;;;;;;;5.70;3.60;;;;;;;8.65;58.78;98090.34;4936917;29;20547;-72
2021/03/11 05:24:47;;;;;;;5.20;3.40;;;;;;;8.71;58.93;98091.06;4936925;29;20031;-72
2021/03/11 05:27:13;;;;;;;7.38;3.95;;;;;;;8.58;59.56;98094.78;4936845;29;20051;-67
2021/03/11 05:29:38;;;;;;;8.95;4.45;;;;;;;8.84;59.18;98095.94;4944594;23;20043;-73
2021/03/11 05:32:03;;;;;;;7.55;3.20;;;;;;;9.00;59.19;98087.84;4936792;29;20381;-73
2021/03/11 05:34:29;;;;;;;14.48;7.35;;;;;;;8.97;59.56;98098.22;4905878;28;20051;-73
2021/03/11 05:36:54;;;;;;;6.68;3.65;;;;;;;8.99;60.24;98099.06;4948843;29;20064;-73
2021/03/11 05:39:19;;;;;;;4.90;3.17;;;;;;;8.91;60.75;98088.03;4936642;29;20039;-73
2021/03/11 05:41:46;;;;;;;3.30;2.63;;;;;;;9.22;59.76;98071.81;4936557;29;20038;-73
2021/03/11 05:44:12;;;;;;;3.13;2.50;;;;;;;9.31;59.69;98087.09;4936421;29;20534;-73
2021/03/11 05:46:39;;;;;;;7.25;2.90;;;;;;;9.28;59.73;98087.16;4926477;29;20034;-73
2021/03/11 05:49:05;;;;;;;7.32;2.60;;;;;;;9.36;59.68;98085.25;4917459;29;20035;-73
2021/03/11 05:51:30;;;;;;;5.85;3.03;;;;;;;9.31;59.86;98086.25;4917182;29;20133;-73
2021/03/11 05:53:58;;;;;;;3.42;2.80;;;;;;;9.42;59.67;98074.75;4917375;29;20111;-73
2021/03/11 05:56:23;;;;;;;7.93;3.20;;;;;;;9.38;59.59;98073.16;4917297;29;20024;-73
2021/03/11 05:58:49;;;;;;;5.40;2.95;;;;;;;9.44;59.94;98073.00;4917694;29;20032;-73
2021/03/11 06:01:14;;;;;;;6.38;2.60;;;;;;;9.37;60.41;98076.63;4917380;29;20035;-68
2021/03/11 06:03:41;;;;;;;3.72;2.70;;;;;;;9.38;60.37;98075.75;4917214;29;20043;-68
2021/03/11 06:06:07;;;;;;;6.38;2.92;;;;;;;9.41;60.00;98067.06;4917110;29;20024;-68
2021/03/11 06:08:34;;;;;;;4.18;2.33;;;;;;;9.35;60.25;98062.88;4917548;29;20555;-68
2021/03/11 06:11:01;;;;;;;3.17;2.40;;;;;;;9.40;60.60;98055.88;4916916;29;20033;-68
2021/03/11 06:13:26;;;;;;;4.60;2.80;;;;;;;9.41;60.48;98056.72;4917199;29;20442;-68
2021/03/11 06:16:03;;;;;;;5.50;2.95;;;;;;;9.44;60.29;98038.53;4926591;29;20102;-68
2021/03/11 06:18:31;;;;;;;4.60;2.88;;;;;;;9.46;60.42;98050.53;4919226;29;20512;-68
2021/03/11 06:20:59;;;;;;;5.18;2.50;;;;;;;9.48;60.20;98046.19;4916691;29;20032;-68
2021/03/11 06:23:25;;;;;;;3.78;2.75;;;;;;;9.51;60.20;98035.75;4916742;29;20028;-68
2021/03/11 06:25:53;;;;;;;5.55;2.78;;;;;;;9.55;60.17;98027.91;4916829;29;20050;-68
2021/03/11 06:28:18;;;;;;;8.35;4.95;;;;;;;9.55;60.22;98033.94;4916787;29;20442;-73
2021/03/11 06:30:43;;;;;;;8.30;5.22;;;;;;;9.64;60.08;98022.50;4916911;29;20154;-73
2021/03/11 06:33:09;;;;;;;4.97;2.72;;;;;;;9.63;60.23;98005.31;4916673;29;20019;-73
2021/03/11 06:35:36;;;;;;;4.82;2.50;;;;;;;9.59;60.14;98009.69;4916679;29;20020;-72
2021/03/11 06:38:02;;;;;;;3.67;2.65;;;;;;;9.65;59.93;98013.84;4916552;29;20032;-73
2021/03/11 06:40:29;;;;;;;5.55;2.80;;;;;;;9.67;59.89;98018.13;4916765;29;20394;-72
2021/03/11 06:43:08;;;;;;;6.57;2.65;;;;;;;9.66;60.27;98000.03;4916545;29;20217;-72
2021/03/11 06:45:34;;;;;;;5.25;2.22;;;;;;;9.75;60.05;98004.94;4923035;29;20020;-73
2021/03/11 06:48:21;;;;;;;3.97;2.38;;;;;;;9.78;59.89;97999.72;4922466;29;20389;-72
2021/03/11 06:50:47;;;;;;;6.28;2.65;;;;;;;9.82;59.73;98006.50;4916147;29;20389;-74
2021/03/11 06:53:12;;;;;;;5.00;2.28;;;;;;;9.80;60.00;98008.25;4916432;29;20028;-73
2021/03/11 06:55:38;;;;;;;3.10;2.67;;;;;;;9.78;59.74;98005.72;4916309;29;20099;-73
2021/03/11 06:58:21;;;;;;;5.25;2.50;;;;;;;9.83;60.06;98000.44;4919674;29;20038;-73
2021/03/11 07:00:47;;;;;;;4.47;2.40;;;;;;;9.89;59.73;97986.47;4924498;29;20023;-73
2021/03/11 07:03:13;;;;;;;4.93;2.30;;;;;;;9.93;59.30;97999.28;4932749;29;20019;-73
2021/03/11 07:05:43;;;;;;;3.63;2.30;;;;;;;9.92;59.95;97992.41;4925891;29;20443;-73
2021/03/11 07:08:11;;;;;;;4.43;1.92;;;;;;;10.02;59.32;97983.50;4935117;29;20043;-73
2021/03/11 07:10:37;;;;;;;3.17;1.92;;;;;;;10.00;59.10;97985.25;4933585;29;20481;-73
2021/03/11 07:13:03;;;;;;;7.43;2.40;;;;;;;10.08;58.78;97987.66;4932431;29;20028;-73
2021/03/11 07:15:31;;;;;;;3.58;2.25;;;;;;;10.11;58.82;97986.72;4928005;29;20556;-73
2021/03/11 07:17:58;;;;;;;6.35;2.08;;;;;;;10.11;59.13;97991.91;4932826;29;20103;-73
2021/03/11 07:20:26;;;;;;;4.63;1.95;;;;;;;10.16;58.85;97990.88;4926985;29;20027;-73
2021/03/11 07:23:06;;;;;;;4.63;2.13;;;;;;;10.26;58.16;97994.06;4934859;29;20027;-73
2021/03/11 07:25:34;;;;;;;4.13;2.03;;;;;;;10.25;58.32;97990.63;4934338;29;20027;-73
2021/03/11 07:28:02;;;;;;;5.57;2.08;;;;;;;10.26;58.36;97996.66;4934146;29;20036;-73
2021/03/11 07:30:28;;;;;;;3.92;2.25;;;;;;;10.33;58.20;97987.81;4934465;29;20032;-73
2021/03/11 07:32:59;;;;;;;4.75;1.85;;;;;;;10.48;58.46;97995.09;4926545;29;20155;-74
2021/03/11 07:35:29;;;;;;;3.47;2.20;;;;;;;10.46;57.83;97983.13;4929523;29;20020;-73
2021/03/11 07:37:58;;;;;;;8.07;1.70;;;;;;;10.49;57.83;97978.69;4925965;29;20028;-73
2021/03/11 07:40:25;;;;;;;2.85;1.75;;;;;;;10.55;57.80;97988.03;4926693;29;20027;-73
2021/03/11 07:42:51;;;;;;;2.25;1.80;;;;;;;10.57;57.78;97985.38;4926975;29;20031;-73
2021/03/11 07:45:17;;;;;;;3.10;1.95;;;;;;;10.64;57.88;97997.25;4927414;29;20052;-73
2021/03/11 07:47:42;;;;;;;2.83;2.13;;;;;;;10.61;57.89;97992.16;4923338;29;20036;-73
2021/03/11 07:50:13;;;;;;;2.50;1.85;;;;;;;10.70;57.64;98007.41;4914405;29;20024;-73
2021/03/11 07:52:40;;;;;;;2.65;2.03;;;;;;;10.73;57.87;97996.94;4915553;29;20565;-73
2021/03/11 07:55:07;;;;;;;4.75;1.95;;;;;;;10.81;57.63;98000.16;4915415;29;20142;-73
2021/03/11 07:57:38;;;;;;;8.05;1.65;;;;;;;10.91;57.16;97986.00;4917640;29;20114;-73
2021/03/11 08:00:04;;;;;;;1.98;1.80;;;;;;;10.95;57.03;97985.00;4926737;29;20075;-73
2021/03/11 08:02:32;;;;;;;2.40;1.48;;;;;;;11.02;56.72;97968.38;4934897;29;20552;-73
2021/03/11 08:04:57;;;;;;;2.25;1.83;;;;;;;11.05;57.01;97991.59;4938340;29;20024;-73
2021/03/11 08:07:25;;;;;;;2.72;1.42;;;;;;;11.09;57.19;97965.56;4938142;29;20028;-73
2021/03/11 08:09:52;;;;;;;4.03;1.55;;;;;;;11.13;57.18;97972.34;4938130;29;20031;-73
2021/03/11 08:12:24;;;;;;;5.57;1.77;;;;;;;11.18;56.55;97960.09;4937486;29;20027;-73
2021/03/11 08:14:49;;;;;;;2.97;1.65;;;;;;;11.25;56.80;97966.75;4934029;29;20071;-73
2021/03/11 08:17:35;;;;;;;1.50;1.38;;;;;;;11.39;56.73;97972.31;4926610;29;20440;-73
2021/03/11 08:20:01;;;;;;;2.90;1.60;;;;;;;11.43;55.91;97953.16;4919002;29;20025;-74
2021/03/11 08:22:57;;;;;;;9.23;2.03;;;;;;;11.61;55.92;97950.84;4918665;29;20028;-73
2021/03/11 08:25:32;;;;;;;1.50;1.40;;;;;;;11.65;55.47;97952.38;4917881;29;20027;-73
2021/03/11 08:28:02;;;;;;;1.83;1.60;;;;;;;11.80;55.22;97946.69;4918596;29;20032;-74
2021/03/11 08:30:36;;;;;;;;;;;;;;;11.95;54.84;97946.13;4927232;29;20115;-74
2021/03/11 08:33:02;;;;;;;2.13;1.50;;;;;;;12.11;54.22;97953.34;4937585;29;19918;-73
2021/03/11 08:35:27;;;;;;;3.05;1.70;;;;;;;12.21;53.67;97936.53;4935394;29;20027;-73
2021/03/11 08:37:53;;;;;;;1.92;1.65;;;;;;;12.39;53.58;97934.97;4929915;29;20043;-73
2021/03/11 08:40:37;;;;;;;1.70;1.20;;;;;;;12.41;53.02;97933.16;4937507;29;20516;-74
2021/03/11 08:43:03;;;;;;;4.78;2.33;;;;;;;12.23;54.21;97929.50;4937509;29;20085;-73
2021/03/11 08:45:36;;;;;;;2.35;1.30;;;;;;;12.05;53.70;97931.91;4929378;29;20028;-74
2021/03/11 08:48:21;;;;;;;3.67;1.50;;;;;;;12.03;54.05;97912.94;4923634;29;20032;-73
2021/03/11 08:50:48;;;;;;;4.22;1.58;;;;;;;12.12;53.25;97905.69;4918265;29;20067;-73
2021/03/11 08:53:35;;;;;;;4.07;1.70;;;;;;;12.16;53.11;97923.72;4918418;29;20035;-73
2021/03/11 08:56:21;;;;;;;6.35;1.85;;;;;;;12.39;52.79;97909.84;4918306;29;20035;-73
2021/03/11 08:58:53;;;;;;;1.50;1.23;;;;;;;12.53;53.05;97898.91;4917641;29;20024;-73
2021/03/11 09:01:46;;;;;;;3.00;1.45;;;;;;;12.68;52.02;97874.06;4925185;29;20023;-73
2021/03/11 09:04:20;;;;;;;2.58;1.42;;;;;;;12.89;51.18;97888.75;4934229;29;20500;-73
2021/03/11 09:07:09;;;;;;;3.10;1.50;;;;;;;13.22;50.67;97891.72;4926786;29;20040;-73
2021/03/11 09:09:36;;;;;;;1.85;1.50;;;;;;;13.67;49.77;97897.56;4922027;29;20038;-73
2021/03/11 09:12:07;;;;;;;2.47;1.80;;;;;;;13.21;50.88;97883.97;4923623;29;20040;-73
2021/03/11 09:14:33;;;;;;;2.03;1.30;;;;;;;13.09;51.37;97891.34;4925569;29;20126;-73
2021/03/11 09:17:11;;;;;;;2.63;1.40;;;;;;;13.13;51.83;97903.31;4926403;29;20036;-74
2021/03/11 09:19:44;;;;;;;3.33;1.42;;;;;;;12.97;52.08;97897.09;4925123;29;20043;-74
2021/03/11 09:22:35;;;;;;;3.40;1.70;;;;;;;12.57;53.21;97903.91;4925364;29;20110;-73
2021/03/11 09:25:05;;;;;;;3.70;1.83;;;;;;;12.59;53.93;97904.69;4923540;29;20027;-73
2021/03/11 09:27:33;;;;;;;3.55;1.58;;;;;;;12.54;53.79;97904.03;4926978;29;20249;-73
2021/03/11 09:30:02;;;;;;;4.10;1.27;;;;;;;12.49;54.15;97900.78;4925050;29;20038;-73
2021/03/11 09:32:35;;;;;;;4.90;1.42;;;;;;;12.43;54.21;97895.81;4918532;29;20030;-73
2021/03/11 09:35:08;;;;;;;2.25;1.40;;;;;;;12.46;54.48;97895.69;4921363;29;20034;-73
2021/03/11 09:37:49;;;;;;;2.58;1.95;;;;;;;12.47;54.25;97902.56;4912063;29;20442;-73
2021/03/11 09:40:22;;;;;;;2.75;1.85;;;;;;;12.52;54.11;97905.84;4915523;29;20412;-73
2021/03/11 09:43:11;;;;;;;3.50;1.30;;;;;;;12.61;54.25;97884.66;4912813;29;20083;-73
2021/03/11 09:45:40;;;;;;;4.20;1.65;;;;;;;12.57;54.08;97890.94;4909591;29;20032;-73
2021/03/11 09:48:07;;;;;;;2.58;0.98;;;;;;;12.56;53.78;97881.41;4911891;29;20531;-73
2021/03/11 09:50:33;;;;;;;1.42;1.33;;;;;;;12.72;53.96;97867.81;4908271;29;20126;-74
2021/03/11 09:53:00;;;;;;;1.63;1.30;;;;;;;12.80;53.80;97853.56;4899049;29;20038;-73
2021/03/11 09:55:25;;;;;;;5.65;1.50;;;;;;;12.82;53.58;97859.56;4899764;29;20044;-73
2021/03/11 09:57:51;;;;;;;1.20;1.10;;;;;;;12.82;53.27;97864.78;4897964;29;20528;-73
2021/03/11 10:00:18;;;;;;;2.78;1.30;;;;;;;12.76;53.75;97856.38;4900147;29;20082;-73
2021/03/11 10:02:51;;;;;;;1.92;1.40;;;;;;;12.84;53.93;97849.09;4900891;29;20031;-73
2021/03/11 10:05:18;;;;;;;1.73;1.23;;;;;;;12.90;53.75;97843.63;4904843;29;20023;-73
2021/03/11 10:07:53;;;;;;;4.18;1.17;;;;;;;12.96;53.63;97846.00;4907751;29;20167;-73
2021/03/11 10:10:18;;;;;;;1.88;1.25;;;;;;;12.97;53.59;97846.84;4902452;29;20040;-73
2021/03/11 10:12:45;;;;;;;2.97;1.40;;;;;;;13.01;54.18;97838.00;4904503;29;20083;-73
2021/03/11 10:15:12;;;;;;;2.67;1.45;;;;;;;12.97;54.06;97834.69;4894524;29;20119;-73
2021/03/11 10:17:38;;;;;;;2.83;1.77;;;;;;;12.99;54.09;97835.44;4894346;29;20039;-73
2021/03/11 10:20:28;;;;;;;8.30;3.13;;;;;;;13.08;53.90;97831.59;4895644;29;20031;-73
2021/03/11 10:23:13;;;;;;;4.68;1.20;;;;;;;13.19;53.74;97828.53;4882037;28;20043;-73
2021/03/11 10:25:39;;;;;;;6.78;1.13;;;;;;;13.26;53.74;97828.25;4908252;29;20113;-73
2021/03/11 10:28:04;;;;;;;1.40;1.00;;;;;;;13.26;53.70;97825.66;4910449;29;20039;-72
2021/03/11 10:30:30;;;;;;;3.35;1.00;;;;;;;13.22;54.21;97818.88;4907274;29;20031;-73
2021/03/11 10:33:02;;;;;;;1.55;1.00;;;;;;;13.19;54.27;97828.53;4908862;29;20059;-73
2021/03/11 10:35:38;;;;;;;6.93;1.10;;;;;;;13.27;54.76;97826.47;4908433;29;20055;-73
2021/03/11 10:38:36;;;;;;;9.30;4.15;;;;;;;13.21;54.76;97821.53;4916192;29;20059;-73
2021/03/11 10:41:16;;;;;;;3.85;1.08;;;;;;;13.24;55.29;97816.19;4912966;29;20044;-73
2021/03/11 10:43:42;;;;;;;2.67;0.88;;;;;;;13.28;55.53;97828.16;4918556;29;20106;-73
2021/03/11 10:46:17;;;;;;;1.08;0.77;;;;;;;13.30;55.61;97826.34;4923804;29;20031;-73
2021/03/11 10:48:52;;;;;;;2.97;0.90;;;;;;;13.36;55.84;97829.53;4923944;29;20434;-72
2021/03/11 10:51:20;;;;;;;1.02;0.93;;;;;;;13.38;55.82;97825.09;4926634;29;20031;-73
2021/03/11 10:53:45;;;;;;;0.60;0.57;;;;;;;13.44;56.34;97823.13;4921386;29;21501;-73
2021/03/11 10:56:12;;;;;;;0.90;0.90;;;;;;;13.35;56.67;97825.25;4923272;29;20032;-73
2021/03/11 10:58:37;;;;;;;0.63;0.63;;;;;;;13.40;56.55;97819.81;4924448;29;20079;-73
2021/03/11 11:01:13;;;;;;;1.15;1.05;;;;;;;13.35;56.65;97824.41;4926591;29;20449;-72
2021/03/11 11:03:39;;;;;;;1.23;0.80;;;;;;;13.32;56.61;97824.53;4920505;29;20039;-73
2021/03/11 11:06:06;;;;;;;0.65;0.60;;;;;;;13.30;57.24;97831.56;4924346;29;20458;-73
2021/03/11 11:08:33;;;;;;;3.08;2.40;;;;;;;13.28;57.78;97828.16;4924844;29;20039;-73
2021/03/11 11:10:58;;;;;;;3.53;0.82;;;;;;;13.30;57.84;97831.56;4924831;29;20059;-73
2021/03/11 11:13:24;;;;;;;0.60;0.60;;;;;;;13.32;57.94;97834.94;4925768;29;20118;-73
2021/03/11 11:15:50;;;;;;;0.60;0.60;;;;;;;13.40;58.24;97847.63;4923479;29;20031;-73
2021/03/11 11:18:15;;;;;;;2.45;0.80;;;;;;;13.33;58.95;97836.59;4922343;29;20547;-73
2021/03/11 11:20:41;;;;;;;1.17;0.90;;;;;;;13.33;60.35;97847.03;4921040;29;20028;-73
2021/03/11 11:23:06;;;;;;;0.82;0.80;;;;;;;13.25;61.05;97849.13;4926482;29;20035;-73
2021/03/11 11:25:32;;;;;;;0.85;0.80;;;;;;;13.19;62.42;97837.19;4920391;29;20638;-73
2021/03/11 11:27:58;;;;;;;3.22;1.88;;;;;;;13.11;63.95;97847.94;4926230;29;20050;-73
2021/03/11 11:30:24;;;;;;;1.20;1.10;;;;;;;13.03;64.34;97855.22;4959875;23;20055;-73
2021/03/11 11:32:49;;;;;;;6.35;1.00;;;;;;;12.90;66.08;97859.22;4938195;28;21032;-73
2021/03/11 11:35:16;;;;;;;4.43;1.00;;;;;;;12.77;67.44;97852.88;4939043;28;20475;-73
2021/03/11 11:37:43;;;;;;;3.15;1.00;;;;;;;12.65;68.33;97848.19;4938929;29;20058;-73
2021/03/11 11:40:10;;;;;;;0.88;0.70;;;;;;;12.52;70.10;97864.28;4938867;28;20114;-74
2021/03/11 11:42:36;;;;;;;5.75;1.13;;;;;;;12.46;71.08;97859.31;4937831;29;20031;-74
2021/03/11 11:45:04;;;;;;;5.78;0.85;;;;;;;12.40;71.19;97859.56;4938513;28;20079;-74
2021/03/11 11:47:30;;;;;;;5.28;1.25;;;;;;;12.32;72.09;97856.41;4938686;28;20114;-74
2021/03/11 11:49:55;;;;;;;1.17;0.90;;;;;;;12.26;72.86;97851.47;4937661;29;20086;-74
2021/03/11 11:52:20;;;;;;;1.70;1.23;;;;;;;12.24;72.22;97848.13;4938643;29;20058;-74
2021/03/11 11:54:46;;;;;;;2.45;0.95;;;;;;;12.24;71.75;97837.72;4937768;28;20027;-74
2021/03/11 11:57:11;;;;;;;3.75;1.00;;;;;;;12.28;73.76;97834.06;4937425;28;21127;-74
2021/03/11 11:59:36;;;;;;;0.77;0.77;;;;;;;12.17;71.98;97841.44;4938632;29;21037;-74
2021/03/11 12:02:02;;;;;;;4.22;1.15;;;;;;;12.09;73.43;97837.41;4938853;28;20467;-74
2021/03/11 12:04:27;;;;;;;1.95;0.80;;;;;;;12.13;73.31;97830.34;4938450;29;20058;-73
2021/03/11 12:06:53;;;;;;;2.28;1.08;;;;;;;12.15;73.22;97823.34;4937815;29;20370;-74
2021/03/11 12:09:18;;;;;;;1.35;0.80;;;;;;;12.18;73.81;97817.16;4938437;29;20078;-74
2021/03/11 12:11:44;;;;;;;3.65;0.88;;;;;;;12.23;72.47;97808.31;4938560;28;20408;-74
2021/03/11 12:14:09;;;;;;;0.82;0.75;;;;;;;12.31;70.89;97810.59;4938767;29;20038;-74
2021/03/11 12:16:35;;;;;;;0.82;0.82;;;;;;;12.42;71.75;97810.97;4938067;28;21000;-74
2021/03/11 12:19:01;;;;;;;0.93;0.70;;;;;;;12.51;71.27;97808.00;4938156;29;20123;-74
2021/03/11 12:21:26;;;;;;;2.50;1.02;;;;;;;12.56;71.34;97795.66;4938566;29;20031;-74
2021/03/11 12:23:52;;;;;;;1.00;0.90;;;;;;;12.57;70.50;97778.31;4938718;28;20086;-74
2021/03/11 12:26:18;;;;;;;6.10;2.45;;;;;;;12.53;69.55;97781.97;4938410;29;20027;-74
2021/03/11 12:28:45;;;;;;;3.03;2.40;;;;;;;12.54;69.50;97773.28;4936616;29;20038;-74
2021/03/11 12:31:11;;;;;;;0.80;0.80;;;;;;;12.58;70.23;97775.69;4936458;29;20122;-74
2021/03/11 12:33:37;;;;;;;0.90;0.77;;;;;;;12.59;69.30;97764.38;4938812;29;20039;-74
2021/03/11 12:36:04;;;;;;;1.75;0.93;;;;;;;12.64;68.69;97768.53;4938526;28;20019;-74
2021/03/11 12:38:29;;;;;;;0.52;0.52;;;;;;;12.77;69.60;97764.50;4938206;29;20023;-74
2021/03/11 12:40:54;;;;;;;1.27;0.55;;;;;;;13.01;68.10;97773.84;4937787;28;20055;-73
2021/03/11 12:43:20;;;;;;;1.10;0.70;;;;;;;13.13;67.15;97741.22;4938075;28;20039;-74
2021/03/11 12:45:46;;;;;;;0.60;0.57;;;;;;;13.10;65.90;97750.03;4941637;29;20031;-73
2021/03/11 12:48:11;;;;;;;2.20;0.90;;;;;;;13.07;67.14;97752.75;4941992;29;20097;-74
2021/03/11 12:50:37;;;;;;;0.70;0.52;;;;;;;13.06;67.19;97745.88;4942215;28;20035;-74
2021/03/11 12:53:03;;;;;;;1.15;0.75;;;;;;;13.10;67.52;97750.03;4925507;28;21313;-73
2021/03/11 12:55:29;;;;;;;2.33;0.75;;;;;;;13.11;66.99;97754.31;4942070;28;20082;-73
2021/03/11 12:57:54;;;;;;;0.70;0.70;;;;;;;13.16;67.30;97776.66;4942010;29;20472;-73
2021/03/11 13:00:20;;;;;;;0.63;0.60;;;;;;;13.18;67.04;97770.47;4941996;28;20540;-73
2021/03/11 13:02:46;;;;;;;1.08;0.73;;;;;;;13.28;67.53;97770.94;4941220;29;20035;-73
2021/03/11 13:05:11;;;;;;;1.02;0.70;;;;;;;13.22;67.27;97773.81;4940701;28;20031;-73
2021/03/11 13:07:37;;;;;;;1.85;0.80;;;;;;;13.17;67.43;97763.59;4941782;29;20093;-73
2021/03/11 13:10:04;;;;;;;0.70;0.70;;;;;;;13.27;66.66;97769.25;4941639;29;21369;-73
2021/03/11 13:12:30;;;;;;;0.70;0.70;;;;;;;13.23;66.77;97758.13;4941567;28;20046;-74
2021/03/11 13:14:55;;;;;;;3.58;1.98;;;;;;;13.30;67.13;97743.09;4940801;29;20027;-74
2021/03/11 13:17:22;;;;;;;1.42;0.80;;;;;;;13.45;67.70;97742.41;4940389;29;20373;-73
2021/03/11 13:19:47;;;;;;;1.27;0.77;;;;;;;13.48;66.37;97742.25;4940246;28;20070;-73
2021/03/11 13:22:13;;;;;;;0.80;0.80;;;;;;;13.55;67.42;97737.63;4941252;28;20154;-73
2021/03/11 13:24:40;;;;;;;0.98;0.80;;;;;;;13.60;66.75;97725.22;4941204;29;20158;-74
2021/03/11 13:27:05;;;;;;;2.25;0.77;;;;;;;13.95;65.72;97715.72;4940897;29;20027;-74
2021/03/11 13:29:31;;;;;;;0.90;0.88;;;;;;;13.89;65.25;97722.06;4940664;29;20034;-73
2021/03/11 13:31:56;;;;;;;2.65;0.98;;;;;;;13.76;65.98;97720.13;4940902;29;20034;-74
2021/03/11 13:34:21;;;;;;;0.95;0.73;;;;;;;13.90;66.29;97717.69;4941274;28;20500;-74
2021/03/11 13:36:47;;;;;;;0.75;0.70;;;;;;;13.84;65.93;97718.84;4941191;29;20045;-74
2021/03/11 13:39:12;;;;;;;0.85;0.80;;;;;;;13.89;66.08;97716.03;4939094;28;20039;-74
2021/03/11 13:41:37;;;;;;;0.70;0.70;;;;;;;13.88;66.39;97714.34;4939509;28;20031;-74
2021/03/11 13:44:04;;;;;;;1.23;0.80;;;;;;;13.88;65.83;97709.13;4940730;29;20027;-73
2021/03/11 13:46:30;;;;;;;0.93;0.80;;;;;;;13.84;65.75;97707.59;4940351;29;20038;-73
2021/03/11 13:48:56;;;;;;;1.00;0.90;;;;;;;14.01;65.90;97705.00;4940805;29;20035;-74
2021/03/11 13:51:22;;;;;;;0.68;0.68;;;;;;;14.11;64.76;97688.00;4939320;29;20050;-73
2021/03/11 13:53:47;;;;;;;0.70;0.70;;;;;;;14.17;64.46;97693.81;4940615;28;20035;-73
2021/03/11 13:56:13;;;;;;;1.40;0.65;;;;;;;14.13;65.93;97682.72;4940261;29;20511;-73
2021/03/11 13:58:39;;;;;;;1.48;0.70;;;;;;;14.17;65.20;97667.75;4940671;28;20066;-74
2021/03/11 14:01:04;;;;;;;0.75;0.70;;;;;;;14.06;64.55;97663.94;4940709;28;20034;-73
2021/03/11 14:03:29;;;;;;;1.35;0.98;;;;;;;14.13;64.94;97661.88;4939277;29;20163;-73
2021/03/11 14:05:55;;;;;;;0.90;0.90;;;;;;;14.27;64.39;97664.63;4939148;29;20028;-73
2021/03/11 14:08:20;;;;;;;0.88;0.73;;;;;;;14.34;63.77;97659.94;4940293;28;20027;-74
2021/03/11 14:10:46;;;;;;;2.10;0.75;;;;;;;14.36;63.26;97660.72;4939755;29;20035;-73
2021/03/11 14:13:11;;;;;;;0.93;0.68;;;;;;;14.20;62.65;97637.19;4939840;28;20048;-73
2021/03/11 14:15:37;;;;;;;1.25;0.70;;;;;;;14.12;63.21;97650.63;4938601;28;20023;-73
2021/03/11 14:18:02;;;;;;;1.08;0.60;;;;;;;14.43;62.65;97653.44;4939730;29;20035;-73
2021/03/11 14:20:28;;;;;;;3.63;0.80;;;;;;;14.84;60.98;97627.78;4939486;29;20027;-73
2021/03/11 14:22:53;;;;;;;1.83;0.63;;;;;;;14.96;60.24;97610.66;4939945;29;20122;-73
2021/03/11 14:25:19;;;;;;;3.65;0.63;;;;;;;14.89;61.18;97641.44;4939173;29;20031;-73
2021/03/11 14:27:44;;;;;;;0.70;0.70;;;;;;;14.57;60.72;97630.97;4939597;29;20036;-73
2021/03/11 14:30:10;;;;;;;0.52;0.52;;;;;;;14.56;60.77;97618.84;4938514;28;20039;-73
2021/03/11 14:32:36;;;;;;;0.70;0.70;;;;;;;14.44;61.40;97623.81;4939921;29;20085;-73
2021/03/11 14:37:29;;;;;;;4.60;2.25;;;;;;;14.75;60.10;97623.09;5059848;28;20373;-74
2021/03/11 14:39:54;;;;;;;0.77;0.50;;;;;;;14.80;60.72;97615.88;5060472;28;20036;-74
2021/03/11 14:42:20;;;;;;;2.97;0.50;;;;;;;14.43;61.64;97623.00;5060206;28;20163;-74
2021/03/11 14:44:46;;;;;;;3.25;0.70;;;;;;;14.18;61.50;97619.97;5058911;28;20024;-74
2021/03/11 14:47:13;;;;;;;1.10;0.60;;;;;;;14.26;61.15;97615.19;5060205;28;20025;-74
2021/03/11 14:49:39;;;;;;;0.98;0.50;;;;;;;14.65;60.33;97610.56;5058963;28;20118;-74
2021/03/11 14:52:04;;;;;;;1.73;0.75;;;;;;;14.47;60.99;97614.09;5059854;28;20088;-74
2021/03/11 14:54:30;;;;;;;2.38;2.17;;;;;;;14.30;61.80;97632.34;5060013;28;20115;-74
2021/03/11 14:56:55;;;;;;;1.20;1.08;;;;;;;14.10;61.83;97630.75;5058774;28;20059;-74
2021/03/11 14:59:20;;;;;;;2.15;0.70;;;;;;;14.13;62.40;97644.50;5059737;28;20043;-74
2021/03/11 15:01:46;;;;;;;6.20;0.70;;;;;;;14.00;62.58;97619.97;5059065;28;20036;-74
2021/03/11 15:04:11;;;;;;;1.05;0.60;;;;;;;13.84;62.97;97634.69;5058406;28;20052;-74
2021/03/11 15:06:37;;;;;;;0.98;0.60;;;;;;;13.61;63.26;97613.22;5059892;28;20052;-74
2021/03/11 15:09:03;;;;;;;0.52;0.40;;;;;;;13.43;63.74;97634.91;5060028;28;20035;-74
2021/03/11 15:11:29;;;;;;;2.10;1.05;;;;;;;13.35;63.21;97617.09;5059135;28;20067;-75
2021/03/11 15:13:54;;;;;;;0.50;0.50;;;;;;;13.26;62.34;97595.88;5056058;28;21688;-74
2021/03/11 15:16:20;;;;;;;0.93;0.50;;;;;;;13.24;61.99;97593.34;5059728;28;20025;-74
2021/03/11 15:18:45;;;;;;;1.33;0.98;;;;;;;13.33;61.51;97607.66;5057277;28;20089;-74
2021/03/11 15:21:11;;;;;;;0.50;0.50;;;;;;;13.27;59.97;97618.38;5058169;28;20028;-74
2021/03/11 15:23:36;;;;;;;3.47;0.63;;;;;;;13.27;61.70;97628.78;5057324;28;20642;-74
2021/03/11 15:26:03;;;;;;;1.42;0.70;;;;;;;13.13;60.30;97617.22;5058827;28;20052;-74
2021/03/11 15:28:29;;;;;;;1.13;0.90;;;;;;;13.05;59.24;97608.97;5041855;28;20043;-74
2021/03/11 15:30:55;;;;;;;0.55;0.55;;;;;;;13.15;59.52;97624.09;5038342;28;20070;-74
2021/03/11 15:33:21;;;;;;;3.00;0.80;;;;;;;13.13;59.15;97638.03;5031403;28;20028;-74
2021/03/11 15:35:46;;;;;;;1.05;0.50;;;;;;;13.19;59.18;97633.47;5001594;28;20025;-74
2021/03/11 15:38:11;;;;;;;0.73;0.65;;;;;;;13.13;58.44;97621.59;5013251;28;20090;-74
2021/03/11 15:40:36;;;;;;;0.60;0.60;;;;;;;13.06;58.70;97615.00;5009997;28;20033;-74
2021/03/11 15:43:02;;;;;;;0.85;0.50;;;;;;;12.99;56.71;97611.81;4967693;28;20599;-74
2021/03/11 15:45:28;;;;;;;1.17;0.70;;;;;;;12.92;57.04;97622.59;4965360;28;20028;-74
2021/03/11 15:47:56;;;;;;;1.73;0.60;;;;;;;12.84;57.29;97599.53;4988482;28;20028;-74
2021/03/11 15:50:22;;;;;;;3.65;0.60;;;;;;;12.78;55.62;97605.03;4964180;28;20037;-73
2021/03/11 15:52:47;;;;;;;0.60;0.60;;;;;;;12.76;55.82;97622.44;4969633;28;21180;-73
2021/03/11 15:55:14;;;;;;;1.25;0.73;;;;;;;12.74;55.28;97611.28;4899888;28;20032;-72
2021/03/11 15:57:40;;;;;;;1.98;0.55;;;;;;;12.68;55.87;97619.34;4961912;28;20074;-73